Time;durP1;ratioP1;P1;durP2;ratioP2;P2;SDS_P1;SDS_P2;PMS_P1;PMS_P2;Temp;Humidity;BMP_temperature;BMP_pressure;BME280_temperature;BME280_humidity;BME280_pressure;Samples;Min_cycle;Max_cycle;Signal;HPM_P1;HPM_P2
2022/10/23 00:01:39;;;;;;;7.20;3.63;;;16.90;74.70;;;-142.21;100.00;112049.66;5065576;28;20450;-69
2022/10/23 00:04:13;;;;;;;6.60;3.70;;;16.90;74.70;;;-142.21;100.00;112049.66;5073210;28;20438;-70
2022/10/23 00:06:42;;;;;;;4.73;3.07;;;16.90;74.70;;;-142.21;100.00;112049.66;5073314;28;20788;-70
2022/10/23 00:09:12;;;;;;;4.33;3.40;;;16.80;74.60;;;-142.21;100.00;112049.66;5072820;28;20527;-70
2022/10/23 00:11:46;;;;;;;6.40;2.53;;;16.80;74.70;;;-142.21;100.00;112049.66;5073166;28;20426;-70
2022/10/23 00:14:14;;;;;;;10.50;3.27;;;16.80;75.60;;;-142.21;100.00;112049.66;5072917;28;20435;-69
2022/10/23 00:16:42;;;;;;;7.50;3.10;;;16.70;74.90;;;-142.21;100.00;112049.66;5072799;28;20558;-71
2022/10/23 00:19:09;;;;;;;5.73;2.73;;;16.70;75.00;;;-142.21;100.00;112049.66;5072612;28;20450;-70
2022/10/23 00:21:38;;;;;;;5.33;3.00;;;16.70;75.10;;;-142.21;100.00;112049.66;5073168;28;20862;-70
2022/10/23 00:24:08;;;;;;;6.97;2.93;;;16.70;75.00;;;-142.21;100.00;112049.66;5072126;28;20526;-70
2022/10/23 00:26:37;;;;;;;7.67;2.90;;;16.70;75.20;;;-142.21;100.00;112049.66;5072979;28;20436;-71
2022/10/23 00:29:04;;;;;;;3.43;2.53;;;16.70;75.20;;;-142.21;100.00;112049.66;5072323;28;20765;-70
2022/10/23 00:31:32;;;;;;;5.50;3.07;;;16.60;74.90;;;-142.21;100.00;112049.66;5073276;28;20443;-70
2022/10/23 00:34:00;;;;;;;9.80;2.90;;;16.60;75.10;;;-142.21;100.00;112049.66;5073181;28;20641;-70
2022/10/23 00:36:28;;;;;;;3.10;2.50;;;16.60;75.10;;;-142.21;100.00;112049.66;5072407;28;20479;-69
2022/10/23 00:38:55;;;;;;;7.83;2.97;;;16.60;75.10;;;-142.21;100.00;112049.66;5072826;28;20629;-69
2022/10/23 00:41:28;;;;;;;7.50;2.87;;;16.50;75.00;;;-142.21;100.00;112049.66;5059612;28;20903;-70
2022/10/23 00:44:09;;;;;;;6.93;3.30;;;16.50;75.00;;;-142.21;100.00;112049.66;5052760;28;20909;-70
2022/10/23 00:46:38;;;;;;;6.40;2.90;;;16.50;75.20;;;-142.21;100.00;112049.66;5068907;28;20477;-69
2022/10/23 00:49:07;;;;;;;5.70;3.10;;;16.50;75.00;;;-142.21;100.00;112049.66;5072379;28;20432;-69
2022/10/23 00:51:40;;;;;;;5.97;2.67;;;16.50;75.10;;;-142.21;100.00;112049.66;5072539;28;20453;-70
2022/10/23 00:54:11;;;;;;;3.53;2.80;;;16.40;74.90;;;-142.21;100.00;112049.66;5071401;28;20551;-71
2022/10/23 00:56:43;;;;;;;4.33;2.80;;;16.40;74.70;;;-142.21;100.00;112049.66;5072427;28;20811;-70
2022/10/23 00:59:10;;;;;;;4.97;3.00;;;16.40;74.70;;;-142.21;100.00;112049.66;5071912;28;20915;-70
2022/10/23 01:01:38;;;;;;;5.57;2.50;;;16.30;74.60;;;-142.21;100.00;112049.66;5062299;28;20448;-72
2022/10/23 01:04:10;;;;;;;10.33;2.80;;;16.30;74.60;;;-142.21;100.00;112049.66;5072204;28;20447;-70
2022/10/23 01:06:43;;;;;;;4.87;2.60;;;16.30;74.70;;;-142.21;100.00;112049.66;5072246;28;20452;-70
2022/10/23 01:09:21;;;;;;;7.47;2.90;;;16.30;74.70;;;-142.21;100.00;112049.66;5071657;28;20435;-70
2022/10/23 01:11:59;;;;;;;5.37;2.63;;;16.20;74.80;;;-142.21;100.00;112049.66;5071894;28;20442;-69
2022/10/23 01:14:37;;;;;;;5.03;2.67;;;16.20;74.90;;;-142.21;100.00;112049.66;5072073;28;20507;-70
2022/10/23 01:17:13;;;;;;;7.10;2.70;;;16.20;75.00;;;-142.21;100.00;112049.66;5071221;28;20432;-69
2022/10/23 01:19:56;;;;;;;7.90;3.17;;;16.20;75.10;;;-142.21;100.00;112049.66;5071884;28;20470;-70
2022/10/23 01:22:53;;;;;;;3.40;2.47;;;16.10;75.20;;;-142.21;100.00;112049.66;5070328;28;20428;-71
2022/10/23 01:25:39;;;;;;;3.77;2.60;;;16.10;75.20;;;-142.21;100.00;112049.66;5038690;28;20536;-70
2022/10/23 01:28:16;;;;;;;6.07;2.97;;;16.10;75.20;;;-142.21;100.00;112049.66;5070581;28;20451;-70
2022/10/23 01:30:45;;;;;;;8.13;2.87;;;16.10;75.00;;;-142.21;100.00;112049.66;5072529;28;20433;-70
2022/10/23 01:33:19;;;;;;;7.37;2.60;;;16.10;75.10;;;-142.21;100.00;112049.66;5071567;28;20443;-70
2022/10/23 01:35:53;;;;;;;6.27;2.23;;;16.00;75.20;;;-142.21;100.00;112049.66;5060231;28;20778;-70
2022/10/23 01:38:27;;;;;;;5.60;2.87;;;16.00;75.40;;;-142.21;100.00;112049.66;5071073;28;20497;-70
2022/10/23 01:41:07;;;;;;;6.33;2.57;;;16.00;75.50;;;-142.21;100.00;112049.66;5072050;28;20424;-71
2022/10/23 01:43:44;;;;;;;5.03;2.53;;;16.00;75.50;;;-142.21;100.00;112049.66;5072406;28;20434;-69
2022/10/23 01:46:16;;;;;;;5.63;2.33;;;16.00;75.60;;;-142.21;100.00;112049.66;5071498;28;20786;-70
2022/10/23 01:48:50;;;;;;;5.20;2.40;;;16.00;75.70;;;-142.21;100.00;112049.66;5032524;28;20465;-69
2022/10/23 01:51:20;;;;;;;4.70;2.20;;;16.00;75.60;;;-142.21;100.00;112049.66;5051450;28;20427;-70
2022/10/23 01:53:52;;;;;;;3.97;2.60;;;15.90;75.30;;;-142.21;100.00;112049.66;5051811;28;20925;-70
2022/10/23 01:56:30;;;;;;;4.53;3.03;;;15.90;75.40;;;-142.21;100.00;112049.66;5070367;28;20554;-70
2022/10/23 01:59:05;;;;;;;6.77;2.90;;;15.90;76.00;;;-142.21;100.00;112049.66;5052213;28;20467;-69
2022/10/23 02:01:36;;;;;;;6.17;2.43;;;15.90;76.70;;;-142.21;100.00;112049.66;5063108;28;20443;-69
2022/10/23 02:04:10;;;;;;;5.57;2.63;;;15.90;75.80;;;-142.21;100.00;112049.66;5072053;28;20510;-70
2022/10/23 02:06:37;;;;;;;2.90;2.40;;;15.90;75.80;;;-142.21;100.00;112049.66;5071304;28;20473;-70
2022/10/23 02:09:05;;;;;;;2.57;2.20;;;15.90;75.70;;;-142.21;100.00;112049.66;5072133;28;20498;-69
2022/10/23 02:11:37;;;;;;;6.57;2.23;;;15.90;75.70;;;-142.21;100.00;112049.66;5072042;28;20477;-70
2022/10/23 02:14:16;;;;;;;4.93;2.70;;;15.80;75.70;;;-142.21;100.00;112049.66;5072104;28;20502;-69
2022/10/23 02:16:51;;;;;;;7.63;2.70;;;15.90;75.70;;;-142.21;100.00;112049.66;5071498;28;20562;-71
2022/10/23 02:19:26;;;;;;;5.27;2.50;;;15.80;75.70;;;-142.21;100.00;112049.66;5071027;28;20887;-71
2022/10/23 02:22:04;;;;;;;6.27;2.43;;;15.90;76.20;;;-142.21;100.00;112049.66;5071614;28;20843;-69
2022/10/23 02:24:38;;;;;;;7.97;3.20;;;15.80;76.10;;;-142.21;100.00;112049.66;5073457;28;20482;-70
2022/10/23 02:27:14;;;;;;;4.73;2.60;;;15.80;76.20;;;-142.21;100.00;112049.66;5074360;28;22129;-70
2022/10/23 02:29:49;;;;;;;3.50;2.50;;;15.80;76.20;;;-142.21;100.00;112049.66;5075290;28;20450;-70
2022/10/23 02:32:21;;;;;;;3.87;2.37;;;15.80;76.10;;;-142.21;100.00;112049.66;5074880;28;20471;-69
2022/10/23 02:34:48;;;;;;;4.63;2.57;;;15.70;76.10;;;-142.21;100.00;112049.66;5075061;28;20536;-69
2022/10/23 02:37:15;;;;;;;5.50;2.60;;;15.70;76.10;;;-142.21;100.00;112049.66;5074544;28;20514;-70
2022/10/23 02:39:43;;;;;;;3.03;2.40;;;15.70;76.30;;;-142.21;100.00;112049.66;5075226;28;20450;-70
2022/10/23 02:42:20;;;;;;;3.53;3.20;;;15.70;76.40;;;-142.21;100.00;112049.66;5074814;28;20478;-71
2022/10/23 02:45:05;;;;;;;3.13;2.70;;;15.70;76.60;;;-142.21;100.00;112049.66;5075048;28;20443;-71
2022/10/23 02:47:51;;;;;;;4.53;2.50;;;15.70;76.60;;;-142.21;100.00;112049.66;5074934;28;20781;-71
2022/10/23 02:50:30;;;;;;;4.80;2.30;;;15.70;76.60;;;-142.21;100.00;112049.66;5074594;28;20514;-70
2022/10/23 02:53:10;;;;;;;6.23;2.50;;;15.70;76.50;;;-142.21;100.00;112049.66;5075242;28;20450;-70
2022/10/23 02:55:58;;;;;;;3.43;2.40;;;15.70;76.50;;;-142.21;100.00;112049.66;5074563;28;20487;-69
2022/10/23 02:58:33;;;;;;;2.97;2.30;;;15.70;76.60;;;-142.21;100.00;112049.66;5074155;28;20435;-69
2022/10/23 03:01:09;;;;;;;3.87;2.37;;;15.70;76.70;;;-142.21;100.00;112049.66;5034141;28;20527;-70
2022/10/23 03:03:42;;;;;;;4.33;2.20;;;15.70;76.90;;;-142.21;100.00;112049.66;5055107;28;20424;-71
2022/10/23 03:06:09;;;;;;;8.30;2.97;;;15.70;77.20;;;-142.21;100.00;112049.66;5057474;28;20520;-70
2022/10/23 03:08:45;;;;;;;3.87;2.40;;;15.70;77.20;;;-142.21;100.00;112049.66;5077055;28;20457;-71
2022/10/23 03:11:12;;;;;;;4.50;2.30;;;15.70;77.30;;;-142.21;100.00;112049.66;5077929;28;20439;-71
2022/10/23 03:13:39;;;;;;;2.83;2.00;;;15.70;77.20;;;-142.21;100.00;112049.66;5074987;28;20451;-69
2022/10/23 03:16:08;;;;;;;7.17;2.70;;;15.70;77.00;;;-142.21;100.00;112049.66;5074825;28;20490;-69
2022/10/23 03:18:35;;;;;;;4.40;2.53;;;15.70;77.20;;;-142.21;100.00;112049.66;5074603;28;20535;-71
2022/10/23 03:21:03;;;;;;;3.67;2.40;;;15.70;77.20;;;-142.21;100.00;112049.66;5074390;28;20451;-70
2022/10/23 03:23:30;;;;;;;2.33;2.00;;;15.70;77.30;;;-142.21;100.00;112049.66;5073397;28;20447;-69
2022/10/23 03:25:57;;;;;;;3.47;2.03;;;15.70;77.30;;;-142.21;100.00;112049.66;5074284;28;20463;-69
2022/10/23 03:28:24;;;;;;;3.13;2.27;;;15.70;77.50;;;-142.21;100.00;112049.66;5073955;28;20443;-71
2022/10/23 03:30:52;;;;;;;4.83;2.70;;;15.70;77.70;;;-142.21;100.00;112049.66;5074120;28;20450;-70
2022/10/23 03:33:21;;;;;;;4.73;2.70;;;15.70;77.90;;;-142.21;100.00;112049.66;5073750;28;20450;-71
2022/10/23 03:35:50;;;;;;;2.40;2.20;;;15.80;78.10;;;-142.21;100.00;112049.66;5073497;28;20483;-70
2022/10/23 03:38:17;;;;;;;2.50;2.30;;;15.80;78.10;;;-142.21;100.00;112049.66;5073104;28;20956;-71
2022/10/23 03:40:44;;;;;;;7.77;2.47;;;15.80;78.00;;;-142.21;100.00;112049.66;5074003;28;20525;-69
2022/10/23 03:43:11;;;;;;;3.83;2.20;;;15.80;78.00;;;-142.21;100.00;112049.66;5073763;28;20447;-70
2022/10/23 03:45:38;;;;;;;4.10;2.30;;;15.90;78.00;;;-142.21;100.00;112049.66;5073063;28;20542;-70
2022/10/23 03:48:07;;;;;;;5.00;2.37;;;15.80;78.70;;;-142.21;100.00;112049.66;5073494;28;20461;-70
2022/10/23 03:50:36;;;;;;;3.87;2.30;;;15.90;78.40;;;-142.21;100.00;112049.66;5073116;28;21003;-70
2022/10/23 03:53:06;;;;;;;7.03;2.97;;;15.90;78.60;;;-142.21;100.00;112049.66;5073592;28;20444;-69
2022/10/23 03:55:33;;;;;;;3.63;2.20;;;15.90;78.70;;;-142.21;100.00;112049.66;5072747;28;20447;-70
2022/10/23 03:58:00;;;;;;;2.60;2.30;;;15.90;78.70;;;-142.21;100.00;112049.66;5073597;28;20447;-69
2022/10/23 04:00:27;;;;;;;3.43;2.57;;;15.90;78.70;;;-142.21;100.00;112049.66;5072694;28;20448;-71
2022/10/23 04:02:54;;;;;;;3.37;2.30;;;15.90;78.70;;;-142.21;100.00;112049.66;5073866;28;20975;-71
2022/10/23 04:05:21;;;;;;;4.07;2.10;;;15.90;78.70;;;-142.21;100.00;112049.66;5073042;28;20463;-69
2022/10/23 04:07:50;;;;;;;6.10;2.40;;;15.90;78.70;;;-142.21;100.00;112049.66;5073005;28;20475;-70
2022/10/23 04:10:17;;;;;;;5.23;2.37;;;15.90;78.90;;;-142.21;100.00;112049.66;5072915;28;20451;-70
2022/10/23 04:12:44;;;;;;;4.57;2.80;;;15.90;78.70;;;-142.21;100.00;112049.66;5073225;28;20449;-70
2022/10/23 04:15:11;;;;;;;5.10;2.40;;;16.00;79.00;;;-142.21;100.00;112049.66;5072938;28;20443;-69
2022/10/23 04:17:40;;;;;;;4.90;2.30;;;16.00;79.10;;;-142.21;100.00;112049.66;5073214;28;20561;-70
2022/10/23 04:20:09;;;;;;;2.40;2.20;;;16.00;79.10;;;-142.21;100.00;112049.66;5072891;28;20853;-71
2022/10/23 04:22:36;;;;;;;3.77;2.80;;;16.00;79.20;;;-142.21;100.00;112049.66;5072398;28;20452;-70
2022/10/23 04:25:05;;;;;;;5.53;2.27;;;16.00;79.20;;;-142.21;100.00;112049.66;5072948;28;20909;-69
2022/10/23 04:27:33;;;;;;;5.07;2.37;;;16.00;79.30;;;-142.21;100.00;112049.66;5072436;28;20440;-71
2022/10/23 04:30:00;;;;;;;2.73;2.40;;;16.10;79.40;;;-142.21;100.00;112049.66;5072656;28;20451;-71
2022/10/23 04:32:27;;;;;;;3.00;2.67;;;16.00;80.00;;;-142.21;100.00;112049.66;5072584;28;20435;-70
2022/10/23 04:34:54;;;;;;;4.43;2.50;;;16.00;79.10;;;-142.21;100.00;112049.66;5072924;28;20444;-69
2022/10/23 04:37:21;;;;;;;5.70;2.70;;;16.00;79.40;;;-142.21;100.00;112049.66;5072569;28;20789;-69
2022/10/23 04:39:48;;;;;;;6.67;2.50;;;16.00;79.60;;;-142.21;100.00;112049.66;5073402;28;20439;-70
2022/10/23 04:42:17;;;;;;;5.87;2.60;;;16.00;79.90;;;-142.21;100.00;112049.66;5072480;28;20443;-70
2022/10/23 04:44:44;;;;;;;4.07;2.43;;;16.00;80.00;;;-142.21;100.00;112049.66;5072617;28;20534;-69
2022/10/23 04:47:11;;;;;;;5.73;2.63;;;16.00;79.90;;;-142.21;100.00;112049.66;5072073;28;20454;-70
2022/10/23 04:49:38;;;;;;;7.77;3.13;;;16.00;80.10;;;-142.21;100.00;112049.66;5072880;28;20534;-70
2022/10/23 04:52:05;;;;;;;4.57;2.77;;;16.00;80.20;;;-142.21;100.00;112049.66;5072822;28;20939;-69
2022/10/23 04:54:37;;;;;;;3.80;2.40;;;16.00;80.20;;;-142.21;100.00;112049.66;5072046;28;20455;-70
2022/10/23 04:57:04;;;;;;;2.60;2.40;;;16.00;80.30;;;-142.21;100.00;112049.66;5072718;28;20467;-70
2022/10/23 04:59:33;;;;;;;2.77;2.20;;;16.10;80.60;;;-142.21;100.00;112049.66;5071579;28;20448;-70
2022/10/23 05:02:00;;;;;;;3.43;2.23;;;16.00;80.70;;;-142.21;100.00;112049.66;5072184;28;20443;-70
2022/10/23 05:04:30;;;;;;;5.27;2.60;;;16.10;80.70;;;-142.21;100.00;112049.66;5072025;28;20522;-69
2022/10/23 05:06:57;;;;;;;4.10;2.33;;;16.10;80.90;;;-142.21;100.00;112049.66;5072352;28;20527;-70
2022/10/23 05:09:24;;;;;;;6.00;2.40;;;16.10;80.80;;;-142.21;100.00;112049.66;5071690;28;20443;-70
2022/10/23 05:11:51;;;;;;;6.00;2.70;;;16.10;81.00;;;-142.21;100.00;112049.66;5072218;28;20446;-71
2022/10/23 05:14:18;;;;;;;4.50;2.40;;;16.10;81.00;;;-142.21;100.00;112049.66;5071653;28;20534;-70
2022/10/23 05:16:54;;;;;;;3.27;2.07;;;16.10;81.00;;;-142.21;100.00;112049.66;5072260;28;20540;-70
2022/10/23 05:19:27;;;;;;;5.53;2.43;;;16.10;80.90;;;-142.21;100.00;112049.66;5052695;28;20435;-69
2022/10/23 05:21:57;;;;;;;9.80;3.13;;;16.10;80.60;;;-142.21;100.00;112049.66;5072550;28;20463;-70
2022/10/23 05:24:24;;;;;;;4.03;2.10;;;16.10;80.60;;;-142.21;100.00;112049.66;5071268;28;20570;-70
2022/10/23 05:26:52;;;;;;;6.47;3.30;;;16.10;80.50;;;-142.21;100.00;112049.66;5072024;28;20451;-70
2022/10/23 05:29:20;;;;;;;5.50;2.80;;;16.00;80.50;;;-142.21;100.00;112049.66;5071519;28;20474;-70
2022/10/23 05:31:52;;;;;;;3.90;3.20;;;16.00;80.60;;;-142.21;100.00;112049.66;5072171;28;20443;-70
2022/10/23 05:34:25;;;;;;;6.77;2.70;;;15.90;81.00;;;-142.21;100.00;112049.66;5071501;28;20428;-70
2022/10/23 05:36:53;;;;;;;4.30;2.97;;;15.80;81.50;;;-142.21;100.00;112049.66;5072232;28;20542;-70
2022/10/23 05:39:21;;;;;;;6.37;3.10;;;15.80;81.80;;;-142.21;100.00;112049.66;5071724;28;20809;-70
2022/10/23 05:41:48;;;;;;;4.13;2.70;;;15.80;81.80;;;-142.21;100.00;112049.66;5071605;28;20513;-70
2022/10/23 05:44:16;;;;;;;7.83;2.90;;;15.80;81.70;;;-142.21;100.00;112049.66;5072119;28;20534;-69
2022/10/23 05:46:44;;;;;;;5.13;3.03;;;15.80;81.50;;;-142.21;100.00;112049.66;5071463;28;20479;-70
2022/10/23 05:49:12;;;;;;;6.80;3.60;;;15.90;81.60;;;-142.21;100.00;112049.66;5071319;28;21002;-71
2022/10/23 05:51:40;;;;;;;7.20;2.87;;;15.90;81.30;;;-142.21;100.00;112049.66;5071693;28;20530;-70
2022/10/23 05:54:08;;;;;;;5.53;2.57;;;15.90;81.10;;;-142.21;100.00;112049.66;5071982;28;20490;-70
2022/10/23 05:56:38;;;;;;;4.07;3.00;;;15.90;81.00;;;-142.21;100.00;112049.66;5070973;28;20842;-71
2022/10/23 05:59:06;;;;;;;8.10;3.00;;;15.90;80.80;;;-142.21;100.00;112049.66;5074904;28;20844;-70
2022/10/23 06:01:33;;;;;;;3.00;2.70;;;15.90;80.80;;;-142.21;100.00;112049.66;5075563;28;20509;-69
2022/10/23 06:04:02;;;;;;;4.47;2.53;;;15.80;80.60;;;-142.21;100.00;112049.66;5076200;28;20789;-69
2022/10/23 06:06:31;;;;;;;5.40;2.33;;;15.80;80.60;;;-142.21;100.00;112049.66;5075088;28;20439;-70
2022/10/23 06:08:58;;;;;;;5.30;2.67;;;15.80;80.30;;;-142.21;100.00;112049.66;5076103;28;20474;-69
2022/10/23 06:11:26;;;;;;;3.63;2.37;;;15.80;80.20;;;-142.21;100.00;112049.66;5073062;28;20443;-69
2022/10/23 06:13:54;;;;;;;4.07;2.67;;;15.80;80.20;;;-142.21;100.00;112049.66;5075355;28;20443;-69
2022/10/23 06:16:25;;;;;;;3.47;2.47;;;15.80;80.40;;;-142.21;100.00;112049.66;5074774;28;20486;-71
2022/10/23 06:18:54;;;;;;;4.17;2.60;;;15.80;80.30;;;-142.21;100.00;112049.66;5055480;28;21094;-70
2022/10/23 06:21:21;;;;;;;4.10;2.90;;;15.70;80.60;;;-142.21;100.00;112049.66;5055125;28;20527;-70
2022/10/23 06:23:50;;;;;;;4.63;2.90;;;15.70;80.50;;;-142.21;100.00;112049.66;5066102;28;20467;-71
2022/10/23 06:26:19;;;;;;;4.73;2.77;;;15.70;80.40;;;-142.21;100.00;112049.66;5074701;28;20447;-69
2022/10/23 06:28:46;;;;;;;4.77;2.57;;;15.70;80.40;;;-142.21;100.00;112049.66;5040203;28;20454;-69
2022/10/23 06:31:17;;;;;;;5.17;2.70;;;15.80;80.50;;;-142.21;100.00;112049.66;5075503;28;20451;-69
2022/10/23 06:33:45;;;;;;;5.30;2.90;;;15.70;80.40;;;-142.21;100.00;112049.66;5075332;28;20439;-69
2022/10/23 06:36:15;;;;;;;5.33;2.87;;;15.70;80.50;;;-142.21;100.00;112049.66;5075261;28;20467;-69
2022/10/23 06:38:42;;;;;;;5.83;2.43;;;15.70;80.50;;;-142.21;100.00;112049.66;5074431;28;20486;-69
2022/10/23 06:41:16;;;;;;;7.03;2.90;;;15.70;80.60;;;-142.21;100.00;112049.66;5074962;28;20447;-70
2022/10/23 06:43:43;;;;;;;7.00;2.37;;;15.70;80.60;;;-142.21;100.00;112049.66;5061650;28;20459;-71
2022/10/23 06:46:10;;;;;;;6.13;3.00;;;15.70;80.60;;;-142.21;100.00;112049.66;5075339;28;20439;-69
2022/10/23 06:48:38;;;;;;;4.17;2.70;;;15.80;80.70;;;-142.21;100.00;112049.66;5074516;28;20539;-70
2022/10/23 06:51:08;;;;;;;6.57;2.80;;;15.70;80.80;;;-142.21;100.00;112049.66;5075076;28;20447;-69
2022/10/23 06:53:35;;;;;;;3.30;2.33;;;15.50;81.50;;;-142.21;100.00;112049.66;5074273;28;20524;-70
2022/10/23 06:56:05;;;;;;;4.20;3.30;;;15.50;81.80;;;-142.21;100.00;112049.66;5074855;28;20777;-69
2022/10/23 06:58:36;;;;;;;8.07;3.33;;;15.50;81.90;;;-142.21;100.00;112049.66;5073700;28;20485;-70
2022/10/23 07:01:07;;;;;;;5.20;2.83;;;15.50;82.20;;;-142.21;100.00;112049.66;5074755;28;20900;-69
2022/10/23 07:03:34;;;;;;;4.23;3.03;;;15.60;82.40;;;-142.21;100.00;112049.66;5074445;28;20536;-70
2022/10/23 07:06:03;;;;;;;8.03;3.10;;;15.70;82.10;;;-142.21;100.00;112049.66;5074759;28;20538;-70
2022/10/23 07:08:30;;;;;;;8.77;2.80;;;15.80;82.00;;;-142.21;100.00;112049.66;5073852;28;20535;-69
2022/10/23 07:10:58;;;;;;;4.27;2.40;;;15.80;81.90;;;-142.21;100.00;112049.66;5073569;28;20500;-70
2022/10/23 07:13:25;;;;;;;4.63;2.67;;;15.90;81.80;;;-142.21;100.00;112049.66;5074201;28;20447;-70
2022/10/23 07:15:54;;;;;;;5.80;3.17;;;15.90;81.90;;;-142.21;100.00;112049.66;5074560;28;20486;-70
2022/10/23 07:18:21;;;;;;;6.93;2.70;;;16.00;82.20;;;-142.21;100.00;112049.66;5074083;28;20862;-70
2022/10/23 07:20:49;;;;;;;3.20;2.53;;;16.00;81.80;;;-142.21;100.00;112049.66;5074802;28;20447;-70
2022/10/23 07:23:17;;;;;;;8.23;5.27;;;16.00;82.00;;;-142.21;100.00;112049.66;5074436;28;20452;-69
2022/10/23 07:25:44;;;;;;;10.10;5.33;;;15.90;82.40;;;-142.21;100.00;112049.66;5073920;28;20566;-69
2022/10/23 07:28:11;;;;;;;11.03;7.07;;;15.90;82.60;;;-142.21;100.00;112049.66;5076050;28;20527;-69
2022/10/23 07:30:39;;;;;;;13.00;8.93;;;16.00;82.70;;;-142.21;100.00;112049.66;5079465;28;20510;-71
2022/10/23 07:33:10;;;;;;;18.53;11.77;;;16.00;82.60;;;-142.21;100.00;112049.66;5067882;28;20444;-70
2022/10/23 07:35:39;;;;;;;16.70;11.20;;;16.00;82.60;;;-142.21;100.00;112049.66;5055210;28;20440;-71
2022/10/23 07:38:07;;;;;;;10.43;7.73;;;16.10;82.70;;;-142.21;100.00;112049.66;5073946;28;20483;-71
2022/10/23 07:40:34;;;;;;;5.83;4.50;;;16.30;82.90;;;-142.21;100.00;112049.66;5038282;28;20852;-69
2022/10/23 07:43:01;;;;;;;4.83;3.60;;;16.40;82.90;;;-142.21;100.00;112049.66;5074007;28;20965;-70
2022/10/23 07:45:28;;;;;;;4.80;3.27;;;16.40;82.50;;;-142.21;100.00;112049.66;5073380;28;20445;-71
2022/10/23 07:47:56;;;;;;;3.73;3.23;;;16.50;82.40;;;-142.21;100.00;112049.66;5073805;28;20531;-70
2022/10/23 07:50:25;;;;;;;6.53;3.50;;;16.60;82.60;;;-142.21;100.00;112049.66;5085499;28;20441;-70
2022/10/23 07:52:52;;;;;;;4.53;2.80;;;16.60;82.70;;;-142.21;100.00;112049.66;5055566;28;20909;-70
2022/10/23 07:55:20;;;;;;;8.03;3.13;;;16.80;83.00;;;-142.21;100.00;112049.66;5073753;28;20451;-69
2022/10/23 07:57:48;;;;;;;5.93;4.10;;;16.90;82.70;;;-142.21;100.00;112049.66;5072942;28;20487;-70
2022/10/23 08:00:16;;;;;;;7.40;3.97;;;17.00;82.50;;;-142.21;100.00;112049.66;5073835;28;20555;-69
2022/10/23 08:02:43;;;;;;;6.27;3.20;;;17.10;82.30;;;-142.21;100.00;112049.66;5073084;28;21301;-69
2022/10/23 08:05:10;;;;;;;6.87;3.43;;;17.30;82.00;;;-142.21;100.00;112049.66;5070262;28;20776;-70
2022/10/23 08:07:39;;;;;;;5.23;2.80;;;17.40;81.60;;;-142.21;100.00;112049.66;5052609;28;20444;-69
2022/10/23 08:10:08;;;;;;;4.37;2.50;;;17.40;81.40;;;-142.21;100.00;112049.66;5063476;28;20439;-70
2022/10/23 08:12:37;;;;;;;4.47;2.40;;;17.60;81.30;;;-142.21;100.00;112049.66;5072967;28;20444;-70
2022/10/23 08:15:06;;;;;;;2.57;2.27;;;17.80;81.30;;;-142.21;100.00;112049.66;5072557;28;20445;-70
2022/10/23 08:17:34;;;;;;;3.70;2.27;;;17.90;80.80;;;-142.21;100.00;112049.66;5071670;28;20476;-71
2022/10/23 08:20:02;;;;;;;2.50;2.30;;;18.10;80.10;;;-142.21;100.00;112049.66;5073023;28;20454;-69
2022/10/23 08:22:30;;;;;;;3.37;2.40;;;18.20;78.90;;;-142.21;100.00;112049.66;5061569;28;20840;-70
2022/10/23 08:24:59;;;;;;;3.03;2.20;;;18.40;78.30;;;-142.21;100.00;112049.66;5069152;28;20533;-71
2022/10/23 08:27:26;;;;;;;5.07;2.10;;;18.50;78.20;;;-142.21;100.00;112049.66;5064737;28;20574;-71
2022/10/23 08:29:53;;;;;;;2.53;2.07;;;18.60;77.60;;;-142.21;100.00;112049.66;5070272;28;20486;-69
2022/10/23 08:32:20;;;;;;;10.33;2.80;;;18.80;77.60;;;-142.21;100.00;112049.66;5052872;28;20448;-70
2022/10/23 08:34:48;;;;;;;6.43;2.20;;;18.90;77.20;;;-142.21;100.00;112049.66;5064512;28;20727;-70
2022/10/23 08:37:16;;;;;;;3.47;1.97;;;19.10;77.60;;;-142.21;100.00;112049.66;5068788;28;20264;-70
2022/10/23 08:39:43;;;;;;;3.07;2.50;;;19.30;77.30;;;-142.21;100.00;112049.66;5068205;28;20216;-70
2022/10/23 08:42:21;;;;;;;13.80;6.07;;;19.60;76.50;;;-142.21;100.00;112049.66;5072474;28;20270;-70
2022/10/23 08:45:03;;;;;;;6.53;4.03;;;19.70;75.50;;;-142.21;100.00;112049.66;5071912;28;20239;-69
2022/10/23 08:47:39;;;;;;;4.20;2.80;;;19.90;75.70;;;-142.21;100.00;112049.66;5071551;28;20239;-70
2022/10/23 08:50:20;;;;;;;3.03;2.30;;;20.10;74.40;;;-142.21;100.00;112049.66;5071737;28;20654;-71
2022/10/23 08:52:56;;;;;;;4.83;2.10;;;20.20;74.20;;;-142.21;100.00;112049.66;5071282;28;20242;-70
2022/10/23 08:55:31;;;;;;;3.50;2.50;;;20.30;73.70;;;-142.21;100.00;112049.66;5052423;28;20258;-71
2022/10/23 08:58:13;;;;;;;3.47;2.57;;;20.40;73.20;;;-142.21;100.00;112049.66;5061004;28;20287;-71
2022/10/23 09:00:42;;;;;;;4.93;2.20;;;20.50;73.30;;;-142.21;99.36;112049.66;5071189;28;20258;-70
2022/10/23 09:03:12;;;;;;;2.70;2.23;;;20.50;72.20;;;-142.21;97.91;112049.66;5065118;28;20210;-70
2022/10/23 09:06:00;;;;;;;5.00;2.10;;;20.50;71.60;;;-142.21;97.75;112049.66;5071355;28;20293;-71
2022/10/23 09:08:51;;;;;;;4.00;2.47;;;20.40;70.80;;;-142.21;98.06;112049.66;5072173;28;20526;-71
2022/10/23 09:11:29;;;;;;;6.07;2.27;;;20.30;71.00;;;-142.21;99.19;112049.66;5072274;28;20622;-70
2022/10/23 09:14:36;;;;;;;3.67;2.40;;;20.40;71.80;;;-142.21;98.37;112049.66;5072524;28;20195;-70
2022/10/23 09:17:20;;;;;;;4.70;2.63;;;20.50;71.30;;;-142.21;97.54;112049.66;5052726;28;20550;-72
2022/10/23 09:19:50;;;;;;;3.57;2.70;;;20.60;71.10;;;-142.21;95.25;112049.66;5069701;28;20197;-70
2022/10/23 09:22:17;;;;;;;4.47;2.27;;;20.70;70.10;;;-142.21;96.34;112049.66;5072418;28;20284;-70
2022/10/23 09:24:44;;;;;;;4.87;2.40;;;20.60;70.70;;;-142.21;97.38;112049.66;5070778;28;20306;-71
2022/10/23 09:27:17;;;;;;;2.90;2.40;;;20.70;70.90;;;-142.21;96.46;112049.66;5072242;28;20676;-70
2022/10/23 09:29:53;;;;;;;3.30;2.47;;;20.90;70.60;;;-142.21;96.73;112049.66;5069938;28;20232;-70
2022/10/23 09:32:32;;;;;;;3.27;2.30;;;21.10;70.70;;;-142.21;95.07;112049.66;5051715;28;20225;-70
2022/10/23 09:34:59;;;;;;;4.07;2.60;;;21.30;70.20;;;-142.21;93.78;112049.66;5051784;28;20190;-71
2022/10/23 09:37:31;;;;;;;3.97;2.33;;;21.50;69.10;;;-142.21;93.68;112049.66;5052381;28;20212;-69
2022/10/23 09:40:14;;;;;;;3.40;2.33;;;21.50;68.60;;;-142.21;93.16;112049.66;5052350;28;20240;-69
2022/10/23 09:42:53;;;;;;;2.63;2.07;;;21.70;68.30;;;-142.21;91.96;112049.66;5068710;28;20236;-71
2022/10/23 09:45:32;;;;;;;3.90;2.40;;;21.70;67.30;;;-142.21;91.07;112049.66;5072296;28;20271;-70
2022/10/23 09:48:16;;;;;;;4.13;2.30;;;21.80;67.20;;;-142.21;92.51;112049.66;5072067;28;20185;-70
2022/10/23 09:50:50;;;;;;;2.83;2.23;;;21.80;67.30;;;-142.21;90.60;112049.66;5071453;28;20186;-70
2022/10/23 09:53:25;;;;;;;2.03;1.80;;;21.90;66.70;;;-142.21;90.88;112049.66;5071848;28;20279;-71
2022/10/23 09:55:55;;;;;;;4.23;2.23;;;22.00;66.70;;;-142.21;90.30;112049.66;5063742;28;20239;-69
2022/10/23 09:58:34;;;;;;;3.53;2.10;;;22.10;66.60;;;-142.21;90.80;112049.66;5085914;28;20274;-70
2022/10/23 10:01:04;;;;;;;2.90;2.17;;;22.10;66.60;;;-142.21;89.66;112049.66;5058114;28;20238;-70
2022/10/23 10:03:32;;;;;;;2.30;1.90;;;22.30;66.40;;;-142.21;89.06;112049.66;5069882;28;20236;-69
2022/10/23 10:06:03;;;;;;;6.23;2.33;;;22.30;66.00;;;-142.21;87.98;112049.66;5071290;28;20259;-69
2022/10/23 10:08:41;;;;;;;3.20;1.90;;;22.40;65.70;;;-142.21;88.06;112049.66;5070236;28;20201;-69